sensor_id;sensor_type;location;lat;lon;timestamp;pressure;altitude;pressure_sealevel;temperature;humidity
50226;BME280;36113;50.742;6.432;2022-10-04T00:04:22;147509.88;;;10.28;100.00
50226;BME280;36113;50.742;6.432;2022-10-04T00:07:00;147516.16;;;10.30;100.00
50226;BME280;36113;50.742;6.432;2022-10-04T00:09:35;147521.19;;;10.32;100.00
50226;BME280;36113;50.742;6.432;2022-10-04T00:12:05;147458.53;;;10.07;100.00
50226;BME280;36113;50.742;6.432;2022-10-04T00:14:36;147509.88;;;10.28;100.00
50226;BME280;36113;50.742;6.432;2022-10-04T00:17:11;147488.59;;;10.19;100.00
50226;BME280;36113;50.742;6.432;2022-10-04T00:19:46;147461.06;;;10.08;100.00
50226;BME280;36113;50.742;6.432;2022-10-04T00:22:14;147402.22;;;9.84;100.00
50226;BME280;36113;50.742;6.432;2022-10-04T00:25:14;147375.91;;;9.73;100.00
50226;BME280;36113;50.742;6.432;2022-10-04T00:28:44;147349.63;;;9.62;100.00
50226;BME280;36113;50.742;6.432;2022-10-04T00:31:12;147250.78;;;9.22;100.00
50226;BME280;36113;50.742;6.432;2022-10-04T00:44:25;147285.81;;;9.36;100.00
50226;BME280;36113;50.742;6.432;2022-10-04T00:46:54;147294.56;;;9.39;100.00
50226;BME280;36113;50.742;6.432;2022-10-04T00:49:23;147303.31;;;9.43;100.00
50226;BME280;36113;50.742;6.432;2022-10-04T00:51:56;147274.53;;;9.31;100.00
50226;BME280;36113;50.742;6.432;2022-10-04T00:54:32;147257.03;;;9.24;100.00
50226;BME280;36113;50.742;6.432;2022-10-04T00:57:39;147269.53;;;9.29;100.00
50226;BME280;36113;50.742;6.432;2022-10-04T01:00:11;147222.00;;;9.10;100.00
50226;BME280;36113;50.742;6.432;2022-10-04T01:05:14;147240.75;;;9.17;100.00
50226;BME280;36113;50.742;6.432;2022-10-04T01:07:45;147225.75;;;9.11;100.00
50226;BME280;36113;50.742;6.432;2022-10-04T01:10:18;147206.97;;;9.04;100.00
50226;BME280;36113;50.742;6.432;2022-10-04T01:15:55;147206.97;;;9.04;100.00
50226;BME280;36113;50.742;6.432;2022-10-04T01:20:53;147193.22;;;8.98;100.00
50226;BME280;36113;50.742;6.432;2022-10-04T01:26:33;147204.50;;;9.03;100.00
50226;BME280;36113;50.742;6.432;2022-10-04T01:28:57;147232.00;;;9.14;100.00
50226;BME280;36113;50.742;6.432;2022-10-04T01:31:27;147297.09;;;9.41;100.00
50226;BME280;36113;50.742;6.432;2022-10-04T01:33:54;147345.88;;;9.61;100.00
50226;BME280;36113;50.742;6.432;2022-10-04T01:36:20;147364.66;;;9.68;100.00
50226;BME280;36113;50.742;6.432;2022-10-04T01:38:46;147424.75;;;9.93;100.00
50226;BME280;36113;50.742;6.432;2022-10-04T01:41:13;147338.41;;;9.57;100.00
50226;BME280;36113;50.742;6.432;2022-10-04T01:43:42;147441.03;;;10.00;100.00
50226;BME280;36113;50.742;6.432;2022-10-04T01:46:29;147451.00;;;10.04;100.00
50226;BME280;36113;50.742;6.432;2022-10-04T01:48:56;147452.31;;;10.04;100.00
50226;BME280;36113;50.742;6.432;2022-10-04T01:51:30;147456.06;;;10.06;100.00
50226;BME280;36113;50.742;6.432;2022-10-04T01:54:10;147467.31;;;10.10;100.00
50226;BME280;36113;50.742;6.432;2022-10-04T01:56:45;147482.34;;;10.17;100.00
50226;BME280;36113;50.742;6.432;2022-10-04T01:59:18;147477.34;;;10.14;100.00
50226;BME280;36113;50.742;6.432;2022-10-04T02:01:55;147492.34;;;10.21;100.00
50226;BME280;36113;50.742;6.432;2022-10-04T02:04:28;147492.34;;;10.21;100.00
50226;BME280;36113;50.742;6.432;2022-10-04T02:06:58;147452.31;;;10.04;100.00
50226;BME280;36113;50.742;6.432;2022-10-04T02:09:28;147479.81;;;10.16;100.00
50226;BME280;36113;50.742;6.432;2022-10-04T02:11:56;147464.81;;;10.09;100.00
50226;BME280;36113;50.742;6.432;2022-10-04T02:14:30;147448.53;;;10.03;100.00
50226;BME280;36113;50.742;6.432;2022-10-04T02:16:59;147458.53;;;10.07;100.00
50226;BME280;36113;50.742;6.432;2022-10-04T02:19:31;147392.19;;;9.80;100.00
50226;BME280;36113;50.742;6.432;2022-10-04T02:22:01;147383.41;;;9.76;100.00
50226;BME280;36113;50.742;6.432;2022-10-04T02:24:27;147300.84;;;9.42;100.00
50226;BME280;36113;50.742;6.432;2022-10-04T02:26:53;147320.84;;;9.50;100.00
50226;BME280;36113;50.742;6.432;2022-10-04T02:29:19;147270.78;;;9.30;100.00
50226;BME280;36113;50.742;6.432;2022-10-04T02:31:46;147215.72;;;9.07;100.00
50226;BME280;36113;50.742;6.432;2022-10-04T02:34:32;147248.25;;;9.20;100.00
50226;BME280;36113;50.742;6.432;2022-10-04T02:37:01;147209.50;;;9.05;100.00
50226;BME280;36113;50.742;6.432;2022-10-04T02:39:31;147166.97;;;8.87;100.00
50226;BME280;36113;50.742;6.432;2022-10-04T02:42:01;147186.94;;;8.95;100.00
50226;BME280;36113;50.742;6.432;2022-10-04T02:44:42;147156.94;;;8.83;100.00
50226;BME280;36113;50.742;6.432;2022-10-04T02:47:18;147156.94;;;8.83;100.00
50226;BME280;36113;50.742;6.432;2022-10-04T02:49:53;147149.41;;;8.80;100.00
50226;BME280;36113;50.742;6.432;2022-10-04T02:52:30;147141.94;;;8.77;100.00
50226;BME280;36113;50.742;6.432;2022-10-04T02:55:08;147118.16;;;8.67;100.00
50226;BME280;36113;50.742;6.432;2022-10-04T02:57:40;147109.41;;;8.63;100.00
50226;BME280;36113;50.742;6.432;2022-10-04T03:02:38;147034.31;;;8.33;100.00
50226;BME280;36113;50.742;6.432;2022-10-04T03:05:07;147106.91;;;8.62;100.00
50226;BME280;36113;50.742;6.432;2022-10-04T03:07:35;147094.38;;;8.57;100.00
50226;BME280;36113;50.742;6.432;2022-10-04T03:10:02;147039.31;;;8.35;100.00
50226;BME280;36113;50.742;6.432;2022-10-04T03:12:31;147051.81;;;8.40;100.00
50226;BME280;36113;50.742;6.432;2022-10-04T03:14:57;147038.09;;;8.34;100.00
50226;BME280;36113;50.742;6.432;2022-10-04T03:17:22;147068.13;;;8.47;100.00
50226;BME280;36113;50.742;6.432;2022-10-04T03:19:48;147075.66;;;8.50;100.00
50226;BME280;36113;50.742;6.432;2022-10-04T03:22:14;147085.63;;;8.54;100.00
50226;BME280;36113;50.742;6.432;2022-10-04T03:24:49;147125.69;;;8.70;100.00
50226;BME280;36113;50.742;6.432;2022-10-04T03:27:27;147168.19;;;8.88;100.00
50226;BME280;36113;50.742;6.432;2022-10-04T03:29:54;147189.47;;;8.96;100.00
50226;BME280;36113;50.742;6.432;2022-10-04T03:32:20;147189.47;;;8.96;100.00
50226;BME280;36113;50.742;6.432;2022-10-04T03:35:04;147176.94;;;8.91;100.00
50226;BME280;36113;50.742;6.432;2022-10-04T03:37:34;147247.03;;;9.20;100.00
50226;BME280;36113;50.742;6.432;2022-10-04T03:40:01;147257.03;;;9.24;100.00
50226;BME280;36113;50.742;6.432;2022-10-04T03:42:33;147265.78;;;9.28;100.00
50226;BME280;36113;50.742;6.432;2022-10-04T03:45:02;147277.06;;;9.32;100.00
50226;BME280;36113;50.742;6.432;2022-10-04T03:47:37;147284.56;;;9.35;100.00
50226;BME280;36113;50.742;6.432;2022-10-04T03:50:25;147288.31;;;9.37;100.00
50226;BME280;36113;50.742;6.432;2022-10-04T03:53:00;147279.53;;;9.33;100.00
50226;BME280;36113;50.742;6.432;2022-10-04T03:55:35;147303.31;;;9.43;100.00
50226;BME280;36113;50.742;6.432;2022-10-04T03:58:03;147300.84;;;9.42;100.00
50226;BME280;36113;50.742;6.432;2022-10-04T04:00:31;147287.03;;;9.36;100.00
50226;BME280;36113;50.742;6.432;2022-10-04T04:03:03;147303.31;;;9.43;100.00
50226;BME280;36113;50.742;6.432;2022-10-04T04:05:35;147289.56;;;9.37;100.00
50226;BME280;36113;50.742;6.432;2022-10-04T04:08:12;147282.03;;;9.34;100.00
50226;BME280;36113;50.742;6.432;2022-10-04T04:10:42;147214.47;;;9.07;100.00
50226;BME280;36113;50.742;6.432;2022-10-04T04:15:33;147194.47;;;8.98;100.00
50226;BME280;36113;50.742;6.432;2022-10-04T04:18:02;147173.19;;;8.90;100.00
50226;BME280;36113;50.742;6.432;2022-10-04T04:20:33;147156.94;;;8.83;100.00
50226;BME280;36113;50.742;6.432;2022-10-04T04:25:53;147115.66;;;8.66;100.00
50226;BME280;36113;50.742;6.432;2022-10-04T04:28:30;147090.63;;;8.56;100.00
50226;BME280;36113;50.742;6.432;2022-10-04T04:31:04;147059.38;;;8.43;100.00
50226;BME280;36113;50.742;6.432;2022-10-04T04:33:34;147026.81;;;8.30;100.00
50226;BME280;36113;50.742;6.432;2022-10-04T04:36:06;146996.81;;;8.17;100.00
50226;BME280;36113;50.742;6.432;2022-10-04T04:38:35;146983.06;;;8.12;100.00
50226;BME280;36113;50.742;6.432;2022-10-04T04:41:21;146984.31;;;8.12;100.00
50226;BME280;36113;50.742;6.432;2022-10-04T04:43:47;146985.53;;;8.13;100.00
50226;BME280;36113;50.742;6.432;2022-10-04T04:46:12;146939.28;;;7.94;100.00
50226;BME280;36113;50.742;6.432;2022-10-04T04:48:38;146944.28;;;7.96;100.00
50226;BME280;36113;50.742;6.432;2022-10-04T04:51:16;146948.03;;;7.97;100.00
50226;BME280;36113;50.742;6.432;2022-10-04T04:53:44;146898.03;;;7.77;100.00
50226;BME280;36113;50.742;6.432;2022-10-04T04:56:11;146958.06;;;8.01;100.00
50226;BME280;36113;50.742;6.432;2022-10-04T04:58:45;146929.31;;;7.89;100.00
50226;BME280;36113;50.742;6.432;2022-10-04T05:01:44;146969.28;;;8.06;100.00
50226;BME280;36113;50.742;6.432;2022-10-04T05:06:38;146961.81;;;8.03;100.00
50226;BME280;36113;50.742;6.432;2022-10-04T05:09:05;146970.56;;;8.06;100.00
50226;BME280;36113;50.742;6.432;2022-10-04T05:11:36;147054.34;;;8.41;100.00
50226;BME280;36113;50.742;6.432;2022-10-04T05:14:08;147088.16;;;8.55;100.00
50226;BME280;36113;50.742;6.432;2022-10-04T05:16:41;147108.19;;;8.63;100.00
50226;BME280;36113;50.742;6.432;2022-10-04T05:19:15;147145.66;;;8.78;100.00
50226;BME280;36113;50.742;6.432;2022-10-04T05:21:44;147179.47;;;8.92;100.00
50226;BME280;36113;50.742;6.432;2022-10-04T05:24:17;147191.97;;;8.97;100.00
50226;BME280;36113;50.742;6.432;2022-10-04T05:26:48;147218.25;;;9.08;100.00
50226;BME280;36113;50.742;6.432;2022-10-04T05:29:17;147179.47;;;8.92;100.00
50226;BME280;36113;50.742;6.432;2022-10-04T05:34:41;147206.97;;;9.04;100.00
50226;BME280;36113;50.742;6.432;2022-10-04T05:37:27;147247.03;;;9.20;100.00
50226;BME280;36113;50.742;6.432;2022-10-04T05:40:15;147263.31;;;9.27;100.00
50226;BME280;36113;50.742;6.432;2022-10-04T05:42:48;147263.31;;;9.27;100.00
50226;BME280;36113;50.742;6.432;2022-10-04T05:45:40;147273.28;;;9.31;100.00
50226;BME280;36113;50.742;6.432;2022-10-04T05:48:06;147275.81;;;9.32;100.00
50226;BME280;36113;50.742;6.432;2022-10-04T05:50:36;147264.53;;;9.27;100.00
50226;BME280;36113;50.742;6.432;2022-10-04T05:53:28;147279.53;;;9.33;100.00
50226;BME280;36113;50.742;6.432;2022-10-04T06:04:58;147303.31;;;9.43;100.00
50226;BME280;36113;50.742;6.432;2022-10-04T06:07:33;147307.06;;;9.45;100.00
50226;BME280;36113;50.742;6.432;2022-10-04T06:18:21;147337.09;;;9.57;100.00
50226;BME280;36113;50.742;6.432;2022-10-04T06:21:08;147342.09;;;9.59;100.00
50226;BME280;36113;50.742;6.432;2022-10-04T06:23:52;147349.63;;;9.62;100.00
50226;BME280;36113;50.742;6.432;2022-10-04T06:26:22;147367.13;;;9.69;100.00
50226;BME280;36113;50.742;6.432;2022-10-04T06:28:59;147338.41;;;9.57;100.00
50226;BME280;36113;50.742;6.432;2022-10-04T06:36:53;147402.22;;;9.84;100.00
50226;BME280;36113;50.742;6.432;2022-10-04T06:42:32;147456.06;;;10.06;100.00
50226;BME280;36113;50.742;6.432;2022-10-04T06:48:45;147484.81;;;10.18;100.00
50226;BME280;36113;50.742;6.432;2022-10-04T07:01:04;147558.78;;;10.48;100.00
50226;BME280;36113;50.742;6.432;2022-10-04T07:03:40;147565.06;;;10.50;100.00
50226;BME280;36113;50.742;6.432;2022-10-04T07:06:11;147567.53;;;10.51;100.00
50226;BME280;36113;50.742;6.432;2022-10-04T07:08:50;147583.81;;;10.58;100.00
50226;BME280;36113;50.742;6.432;2022-10-04T07:11:26;147581.28;;;10.57;100.00
50226;BME280;36113;50.742;6.432;2022-10-04T07:14:08;147600.09;;;10.65;100.00
50226;BME280;36113;50.742;6.432;2022-10-04T07:16:46;147608.88;;;10.68;100.00
50226;BME280;36113;50.742;6.432;2022-10-04T07:21:54;147637.69;;;10.80;100.00
50226;BME280;36113;50.742;6.432;2022-10-04T07:27:43;147712.88;;;11.11;100.00
50226;BME280;36113;50.742;6.432;2022-10-04T07:30:10;147735.41;;;11.20;100.00
50226;BME280;36113;50.742;6.432;2022-10-04T07:32:42;147731.66;;;11.19;100.00
50226;BME280;36113;50.742;6.432;2022-10-04T07:37:50;147835.69;;;11.61;100.00
50226;BME280;36113;50.742;6.432;2022-10-04T07:40:33;147860.75;;;11.72;100.00
50226;BME280;36113;50.742;6.432;2022-10-04T07:43:07;147887.06;;;11.82;100.00
50226;BME280;36113;50.742;6.432;2022-10-04T07:45:38;147905.88;;;11.90;100.00
50226;BME280;36113;50.742;6.432;2022-10-04T07:48:18;147873.28;;;11.77;100.00
50226;BME280;36113;50.742;6.432;2022-10-04T07:54:04;147883.34;;;11.81;100.00
50226;BME280;36113;50.742;6.432;2022-10-04T07:59:55;147977.41;;;12.19;100.00
50226;BME280;36113;50.742;6.432;2022-10-04T08:05:21;148006.25;;;12.31;100.00
50226;BME280;36113;50.742;6.432;2022-10-04T08:16:14;148237.09;;;13.26;100.00
50226;BME280;36113;50.742;6.432;2022-10-04T08:19:14;148264.72;;;13.37;100.00
50226;BME280;36113;50.742;6.432;2022-10-04T08:24:25;148238.34;;;13.26;100.00
50226;BME280;36113;50.742;6.432;2022-10-04T08:30:01;148291.13;;;13.48;100.00
50226;BME280;36113;50.742;6.432;2022-10-04T08:58:07;148547.25;;;14.53;97.96
50226;BME280;36113;50.742;6.432;2022-10-04T09:12:19;148705.59;;;15.17;90.73
50226;BME280;36113;50.742;6.432;2022-10-04T09:15:15;148745.81;;;15.34;89.43
50226;BME280;36113;50.742;6.432;2022-10-04T09:18:01;148720.69;;;15.24;88.00
50226;BME280;36113;50.742;6.432;2022-10-04T09:20:54;148752.06;;;15.36;90.48
50226;BME280;36113;50.742;6.432;2022-10-04T09:31:28;148804.88;;;15.58;94.13
50226;BME280;36113;50.742;6.432;2022-10-04T09:34:06;148886.63;;;15.91;93.78
50226;BME280;36113;50.742;6.432;2022-10-04T09:37:25;148887.91;;;15.92;92.88
50226;BME280;36113;50.742;6.432;2022-10-04T09:46:42;148950.78;;;16.18;91.09
50226;BME280;36113;50.742;6.432;2022-10-04T10:07:11;149070.25;;;16.66;87.31
50226;BME280;36113;50.742;6.432;2022-10-04T10:21:48;149129.44;;;16.91;84.96
50226;BME280;36113;50.742;6.432;2022-10-04T10:33:09;149221.28;;;17.28;73.56
50226;BME280;36113;50.742;6.432;2022-10-04T10:35:48;149203.69;;;17.21;64.32
50226;BME280;36113;50.742;6.432;2022-10-04T10:38:29;149243.94;;;17.37;63.92
50226;BME280;36113;50.742;6.432;2022-10-04T10:41:11;149211.19;;;17.24;61.78
50226;BME280;36113;50.742;6.432;2022-10-04T10:47:05;149319.44;;;17.68;64.78
50226;BME280;36113;50.742;6.432;2022-10-04T10:55:28;149349.66;;;17.80;62.19
50226;BME280;36113;50.742;6.432;2022-10-04T10:58:07;149388.75;;;17.96;61.47
50226;BME280;36113;50.742;6.432;2022-10-04T11:00:58;149397.56;;;18.00;61.65
50226;BME280;36113;50.742;6.432;2022-10-04T11:03:53;149406.38;;;18.04;68.91
50226;BME280;36113;50.742;6.432;2022-10-04T11:09:21;149348.41;;;17.80;75.38
50226;BME280;36113;50.742;6.432;2022-10-04T11:39:15;149298.06;;;17.59;75.85
50226;BME280;36113;50.742;6.432;2022-10-04T11:41:59;149269.09;;;17.48;76.20
50226;BME280;36113;50.742;6.432;2022-10-04T11:55:32;149143.25;;;16.96;79.33
50226;BME280;36113;50.742;6.432;2022-10-04T11:58:22;149194.84;;;17.17;80.91
50226;BME280;36113;50.742;6.432;2022-10-04T12:01:55;149214.97;;;17.25;78.44
50226;BME280;36113;50.742;6.432;2022-10-04T12:18:58;149286.72;;;17.55;80.04
50226;BME280;36113;50.742;6.432;2022-10-04T12:21:51;149329.50;;;17.72;80.85
50226;BME280;36113;50.742;6.432;2022-10-04T12:27:22;149340.84;;;17.77;79.10
50226;BME280;36113;50.742;6.432;2022-10-04T12:30:12;149271.63;;;17.49;81.36
50226;BME280;36113;50.742;6.432;2022-10-04T12:32:51;149240.16;;;17.36;82.01
50226;BME280;36113;50.742;6.432;2022-10-04T12:36:21;149266.59;;;17.47;82.58
50226;BME280;36113;50.742;6.432;2022-10-04T12:38:17;149350.94;;;17.81;83.85
50226;BME280;36113;50.742;6.432;2022-10-04T12:43:21;149248.94;;;17.39;80.56
50226;BME280;36113;50.742;6.432;2022-10-04T12:46:15;149262.81;;;17.45;79.58
50226;BME280;36113;50.742;6.432;2022-10-04T12:52:01;149342.09;;;17.77;80.09
50226;BME280;36113;50.742;6.432;2022-10-04T12:54:33;149309.41;;;17.64;78.19
50226;BME280;36113;50.742;6.432;2022-10-04T12:59:37;149318.19;;;17.68;78.31
50226;BME280;36113;50.742;6.432;2022-10-04T13:05:01;149371.09;;;17.89;78.84
50226;BME280;36113;50.742;6.432;2022-10-04T13:07:57;149406.38;;;18.04;78.00
50226;BME280;36113;50.742;6.432;2022-10-04T13:10:34;149406.38;;;18.04;76.85
50226;BME280;36113;50.742;6.432;2022-10-04T13:19:16;149407.63;;;18.04;75.92
50226;BME280;36113;50.742;6.432;2022-10-04T13:22:11;149382.44;;;17.94;76.63
50226;BME280;36113;50.742;6.432;2022-10-04T13:27:46;149437.84;;;18.16;75.55
50226;BME280;36113;50.742;6.432;2022-10-04T13:33:01;149488.19;;;18.37;75.54
50226;BME280;36113;50.742;6.432;2022-10-04T13:35:51;149408.88;;;18.05;74.95
50226;BME280;36113;50.742;6.432;2022-10-04T13:41:37;149382.44;;;17.94;75.09
50226;BME280;36113;50.742;6.432;2022-10-04T13:47:32;149405.09;;;18.03;75.85
50226;BME280;36113;50.742;6.432;2022-10-04T13:56:10;149421.47;;;18.10;72.24
50226;BME280;36113;50.742;6.432;2022-10-04T14:12:59;149507.13;;;18.45;71.70
50226;BME280;36113;50.742;6.432;2022-10-04T14:24:32;149576.38;;;18.73;72.43
50226;BME280;36113;50.742;6.432;2022-10-04T14:27:25;149591.50;;;18.79;70.06
50226;BME280;36113;50.742;6.432;2022-10-04T14:32:29;149618.00;;;18.90;70.40
50226;BME280;36113;50.742;6.432;2022-10-04T14:38:32;149611.69;;;18.87;68.65
50226;BME280;36113;50.742;6.432;2022-10-04T14:59:45;149638.16;;;18.98;65.69
50226;BME280;36113;50.742;6.432;2022-10-04T15:05:37;149635.63;;;18.97;69.69
50226;BME280;36113;50.742;6.432;2022-10-04T15:08:25;149609.19;;;18.86;69.35
50226;BME280;36113;50.742;6.432;2022-10-04T15:11:01;149577.63;;;18.73;71.23
50226;BME280;36113;50.742;6.432;2022-10-04T15:16:13;149563.78;;;18.68;71.23
50226;BME280;36113;50.742;6.432;2022-10-04T15:21:29;149572.59;;;18.71;68.94
50226;BME280;36113;50.742;6.432;2022-10-04T15:40:39;149515.94;;;18.48;68.67
50226;BME280;36113;50.742;6.432;2022-10-04T15:43:21;149479.41;;;18.33;70.25
50226;BME280;36113;50.742;6.432;2022-10-04T16:04:40;149347.16;;;17.79;75.74
50226;BME280;36113;50.742;6.432;2022-10-04T16:12:53;149265.31;;;17.46;78.57
50226;BME280;36113;50.742;6.432;2022-10-04T16:15:35;149265.31;;;17.46;80.23
50226;BME280;36113;50.742;6.432;2022-10-04T16:23:40;149164.63;;;17.05;83.49
50226;BME280;36113;50.742;6.432;2022-10-04T16:29:08;149111.78;;;16.83;84.63
50226;BME280;36113;50.742;6.432;2022-10-04T16:32:00;149102.97;;;16.80;86.28
50226;BME280;36113;50.742;6.432;2022-10-04T16:47:38;148897.97;;;15.96;91.33
50226;BME280;36113;50.742;6.432;2022-10-04T16:53:43;148848.91;;;15.76;93.16
50226;BME280;36113;50.742;6.432;2022-10-04T16:56:21;148814.94;;;15.62;92.71
50226;BME280;36113;50.742;6.432;2022-10-04T16:58:51;148826.25;;;15.67;93.09
50226;BME280;36113;50.742;6.432;2022-10-04T17:09:46;148681.75;;;15.08;95.51
50226;BME280;36113;50.742;6.432;2022-10-04T17:12:35;148728.22;;;15.27;95.94
50226;BME280;36113;50.742;6.432;2022-10-04T17:15:18;148716.91;;;15.22;96.59
50226;BME280;36113;50.742;6.432;2022-10-04T17:20:45;148708.13;;;15.18;96.90
50226;BME280;36113;50.742;6.432;2022-10-04T17:29:00;148572.44;;;14.63;100.00
50226;BME280;36113;50.742;6.432;2022-10-04T17:31:35;148592.50;;;14.71;100.00
50226;BME280;36113;50.742;6.432;2022-10-04T17:36:55;148606.34;;;14.77;100.00
50226;BME280;36113;50.742;6.432;2022-10-04T17:39:47;148602.56;;;14.75;100.00
50226;BME280;36113;50.742;6.432;2022-10-04T17:42:31;148574.91;;;14.64;100.00
50226;BME280;36113;50.742;6.432;2022-10-04T17:45:28;148547.25;;;14.53;100.00
50226;BME280;36113;50.742;6.432;2022-10-04T17:48:09;148497.03;;;14.32;100.00
50226;BME280;36113;50.742;6.432;2022-10-04T17:51:03;148449.28;;;14.13;100.00
50226;BME280;36113;50.742;6.432;2022-10-04T17:53:59;148416.66;;;13.99;100.00
50226;BME280;36113;50.742;6.432;2022-10-04T17:57:12;148375.22;;;13.82;100.00
50226;BME280;36113;50.742;6.432;2022-10-04T17:59:56;148338.78;;;13.67;100.00
50226;BME280;36113;50.742;6.432;2022-10-04T18:05:03;148343.81;;;13.69;100.00
50226;BME280;36113;50.742;6.432;2022-10-04T18:07:41;148343.81;;;13.69;100.00
50226;BME280;36113;50.742;6.432;2022-10-04T18:10:38;148358.91;;;13.76;100.00
50226;BME280;36113;50.742;6.432;2022-10-04T18:13:24;148356.38;;;13.75;100.00
50226;BME280;36113;50.742;6.432;2022-10-04T18:18:44;148350.09;;;13.72;100.00
50226;BME280;36113;50.742;6.432;2022-10-04T18:21:28;148346.34;;;13.71;100.00
50226;BME280;36113;50.742;6.432;2022-10-04T18:24:00;148340.03;;;13.68;100.00
50226;BME280;36113;50.742;6.432;2022-10-04T18:26:31;148331.25;;;13.64;100.00
50226;BME280;36113;50.742;6.432;2022-10-04T18:28:59;148307.44;;;13.55;100.00
50226;BME280;36113;50.742;6.432;2022-10-04T18:31:31;148338.78;;;13.67;100.00
50226;BME280;36113;50.742;6.432;2022-10-04T18:34:01;148304.91;;;13.54;100.00
50226;BME280;36113;50.742;6.432;2022-10-04T18:39:46;148342.56;;;13.69;100.00
50226;BME280;36113;50.742;6.432;2022-10-04T18:42:21;148326.25;;;13.62;100.00
50226;BME280;36113;50.742;6.432;2022-10-04T18:44:59;148311.16;;;13.56;100.00
50226;BME280;36113;50.742;6.432;2022-10-04T18:47:36;148289.81;;;13.47;100.00
50226;BME280;36113;50.742;6.432;2022-10-04T18:55:39;148230.78;;;13.23;100.00
50226;BME280;36113;50.742;6.432;2022-10-04T19:04:25;148230.78;;;13.23;100.00
50226;BME280;36113;50.742;6.432;2022-10-04T19:07:06;148217.00;;;13.18;100.00
50226;BME280;36113;50.742;6.432;2022-10-04T19:12:20;148220.78;;;13.19;100.00
50226;BME280;36113;50.742;6.432;2022-10-04T19:18:27;148181.88;;;13.03;100.00
50226;BME280;36113;50.742;6.432;2022-10-04T19:24:04;148122.91;;;12.79;100.00
50226;BME280;36113;50.742;6.432;2022-10-04T19:26:38;148185.66;;;13.05;100.00
50226;BME280;36113;50.742;6.432;2022-10-04T19:31:42;148195.69;;;13.09;100.00
50226;BME280;36113;50.742;6.432;2022-10-04T19:34:17;148189.38;;;13.06;100.00
50226;BME280;36113;50.742;6.432;2022-10-04T19:39:44;148075.22;;;12.60;100.00
50226;BME280;36113;50.742;6.432;2022-10-04T19:42:18;148011.25;;;12.33;100.00
50226;BME280;36113;50.742;6.432;2022-10-04T19:47:37;148063.97;;;12.55;100.00
50226;BME280;36113;50.742;6.432;2022-10-04T19:50:06;148073.97;;;12.59;100.00
50226;BME280;36113;50.742;6.432;2022-10-04T19:52:49;148097.81;;;12.69;100.00
50226;BME280;36113;50.742;6.432;2022-10-04T19:57:52;148032.59;;;12.42;100.00
50226;BME280;36113;50.742;6.432;2022-10-04T20:00:22;148031.34;;;12.42;100.00
50226;BME280;36113;50.742;6.432;2022-10-04T20:02:47;148047.66;;;12.48;100.00
50226;BME280;36113;50.742;6.432;2022-10-04T20:05:16;148042.59;;;12.46;100.00
50226;BME280;36113;50.742;6.432;2022-10-04T20:07:50;148023.81;;;12.38;100.00
50226;BME280;36113;50.742;6.432;2022-10-04T20:10:22;147999.97;;;12.29;100.00
50226;BME280;36113;50.742;6.432;2022-10-04T20:15:49;147949.81;;;12.08;100.00
50226;BME280;36113;50.742;6.432;2022-10-04T20:21:03;147922.25;;;11.97;100.00
50226;BME280;36113;50.742;6.432;2022-10-04T20:26:34;147894.59;;;11.86;100.00
50226;BME280;36113;50.742;6.432;2022-10-04T20:32:01;147909.69;;;11.92;100.00
50226;BME280;36113;50.742;6.432;2022-10-04T20:34:31;147899.59;;;11.88;100.00
50226;BME280;36113;50.742;6.432;2022-10-04T20:37:01;147894.59;;;11.86;100.00
50226;BME280;36113;50.742;6.432;2022-10-04T20:45:00;147938.56;;;12.04;100.00
50226;BME280;36113;50.742;6.432;2022-10-04T20:53:19;147952.31;;;12.09;100.00
50226;BME280;36113;50.742;6.432;2022-10-04T20:55:46;147939.78;;;12.04;100.00
50226;BME280;36113;50.742;6.432;2022-10-04T21:00:58;147856.97;;;11.70;100.00
50226;BME280;36113;50.742;6.432;2022-10-04T21:03:23;147826.91;;;11.58;100.00
50226;BME280;36113;50.742;6.432;2022-10-04T21:06:06;147836.91;;;11.62;100.00
50226;BME280;36113;50.742;6.432;2022-10-04T21:08:33;147758.00;;;11.30;100.00
50226;BME280;36113;50.742;6.432;2022-10-04T21:11:25;147790.53;;;11.43;100.00
50226;BME280;36113;50.742;6.432;2022-10-04T21:14:21;147759.22;;;11.30;100.00
50226;BME280;36113;50.742;6.432;2022-10-04T21:16:47;147765.47;;;11.33;100.00
50226;BME280;36113;50.742;6.432;2022-10-04T21:21:58;147771.75;;;11.35;100.00
50226;BME280;36113;50.742;6.432;2022-10-04T21:26:55;147715.34;;;11.12;100.00
50226;BME280;36113;50.742;6.432;2022-10-04T21:29:21;147653.97;;;10.87;100.00
50226;BME280;36113;50.742;6.432;2022-10-04T21:31:46;147726.63;;;11.17;100.00
50226;BME280;36113;50.742;6.432;2022-10-04T21:34:12;147697.81;;;11.05;100.00
50226;BME280;36113;50.742;6.432;2022-10-04T21:36:37;147643.94;;;10.83;100.00
50226;BME280;36113;50.742;6.432;2022-10-04T21:39:02;147642.69;;;10.82;100.00
50226;BME280;36113;50.742;6.432;2022-10-04T21:41:28;147636.44;;;10.80;100.00
50226;BME280;36113;50.742;6.432;2022-10-04T21:43:54;147635.16;;;10.79;100.00
50226;BME280;36113;50.742;6.432;2022-10-04T21:46:19;147637.69;;;10.80;100.00
50226;BME280;36113;50.742;6.432;2022-10-04T21:48:44;147632.69;;;10.78;100.00
50226;BME280;36113;50.742;6.432;2022-10-04T21:51:10;147647.69;;;10.84;100.00
50226;BME280;36113;50.742;6.432;2022-10-04T21:53:35;147652.75;;;10.86;100.00
50226;BME280;36113;50.742;6.432;2022-10-04T21:56:03;147642.69;;;10.82;100.00
50226;BME280;36113;50.742;6.432;2022-10-04T21:58:31;147637.69;;;10.80;100.00
50226;BME280;36113;50.742;6.432;2022-10-04T22:00:57;147611.41;;;10.69;100.00
50226;BME280;36113;50.742;6.432;2022-10-04T22:03:22;147585.06;;;10.59;100.00